createdAt,value
2023-03-22T00:02:08.191Z,13.10
2023-03-22T00:05:12.647Z,13.10
2023-03-22T00:08:17.009Z,13.10
2023-03-22T00:11:24.418Z,13.10
2023-03-22T00:14:28.768Z,13.20
2023-03-22T00:17:33.315Z,13.30
2023-03-22T00:20:39.457Z,13.30
2023-03-22T00:23:45.062Z,13.30
2023-03-22T00:26:49.684Z,13.50
2023-03-22T00:29:54.344Z,13.60
2023-03-22T00:32:58.622Z,13.40
2023-03-22T00:36:07.012Z,13.40
2023-03-22T00:39:11.646Z,13.40
2023-03-22T00:42:16.260Z,13.20
2023-03-22T00:45:20.851Z,13.20
2023-03-22T00:48:25.648Z,13.20
2023-03-22T00:51:30.085Z,13.00
2023-03-22T00:54:34.466Z,13.20
2023-03-22T00:57:38.951Z,12.90
2023-03-22T01:00:45.124Z,12.90
2023-03-22T01:03:50.622Z,12.80
2023-03-22T01:07:02.030Z,13.00
2023-03-22T01:10:07.406Z,12.70
2023-03-22T01:13:12.701Z,12.70
2023-03-22T01:16:18.205Z,12.60
2023-03-22T01:19:23.323Z,12.60
2023-03-22T01:22:28.007Z,12.60
2023-03-22T01:25:32.557Z,12.50
2023-03-22T01:28:37.177Z,12.50
2023-03-22T01:31:41.883Z,12.60
2023-03-22T01:34:46.924Z,12.30
2023-03-22T01:37:51.573Z,12.20
2023-03-22T01:40:57.378Z,12.50
2023-03-22T01:44:14.235Z,12.30
2023-03-22T01:47:18.914Z,12.40
2023-03-22T01:50:25.843Z,12.20
2023-03-22T01:53:34.700Z,12.50
2023-03-22T01:56:42.508Z,12.30
2023-03-22T01:59:52.668Z,12.30
2023-03-22T02:03:25.851Z,12.20
2023-03-22T02:06:32.371Z,12.30
2023-03-22T02:09:46.508Z,12.50
2023-03-22T02:13:10.464Z,12.60
2023-03-22T02:17:06.810Z,12.50
2023-03-22T02:20:32.245Z,12.60
2023-03-22T02:23:57.145Z,12.60
2023-03-22T02:27:23.531Z,12.50
2023-03-22T02:30:40.164Z,12.60
2023-03-22T02:34:17.058Z,12.40
2023-03-22T02:37:43.130Z,12.50
2023-03-22T02:40:57.456Z,12.70
2023-03-22T02:44:10.592Z,12.60
2023-03-22T02:47:34.295Z,12.80
2023-03-22T02:50:51.554Z,12.70
2023-03-22T02:53:59.155Z,12.90
2023-03-22T02:57:08.416Z,13.00
2023-03-22T03:00:15.772Z,13.00
2023-03-22T03:03:25.574Z,13.10
2023-03-22T03:06:35.756Z,12.80
2023-03-22T03:09:42.349Z,13.10
2023-03-22T03:12:48.823Z,12.80
2023-03-22T03:15:59.120Z,13.00
2023-03-22T03:19:30.732Z,12.90
2023-03-22T03:22:42.306Z,12.60
2023-03-22T03:26:20.940Z,12.70
2023-03-22T03:29:37.881Z,12.70
2023-03-22T03:32:52.673Z,12.70
2023-03-22T03:36:05.084Z,13.00
2023-03-22T03:39:13.629Z,12.80
2023-03-22T03:42:19.127Z,13.00
2023-03-22T03:45:24.936Z,13.20
2023-03-22T03:48:32.408Z,12.90
2023-03-22T03:51:50.259Z,13.20
2023-03-22T03:54:55.221Z,13.10
2023-03-22T03:58:05.695Z,12.90
2023-03-22T04:01:10.499Z,13.20
2023-03-22T04:04:34.879Z,13.00
2023-03-22T04:07:40.371Z,13.10
2023-03-22T04:10:50.174Z,13.00
2023-03-22T04:13:54.929Z,13.20
2023-03-22T04:17:01.075Z,13.00
2023-03-22T04:20:10.788Z,13.20
2023-03-22T04:23:15.957Z,13.30
2023-03-22T04:26:25.531Z,13.10
2023-03-22T04:29:52.353Z,13.20
2023-03-22T04:33:15.304Z,12.90
2023-03-22T04:36:39.686Z,12.80
2023-03-22T04:39:54.231Z,12.80
2023-03-22T04:43:23.012Z,13.10
2023-03-22T04:46:35.388Z,13.00
2023-03-22T04:49:42.704Z,12.90
2023-03-22T04:52:48.071Z,13.00
2023-03-22T04:55:59.516Z,13.00
2023-03-22T04:59:06.556Z,12.80
2023-03-22T05:02:10.965Z,12.70
2023-03-22T05:05:20.253Z,12.90
2023-03-22T05:08:27.347Z,12.60
2023-03-22T05:11:32.139Z,12.50
2023-03-22T05:14:50.825Z,12.70
2023-03-22T05:18:00.266Z,12.50
2023-03-22T05:21:06.795Z,12.40
2023-03-22T05:24:11.933Z,12.40
2023-03-22T05:27:31.659Z,12.30
2023-03-22T05:30:57.109Z,12.30
2023-03-22T05:34:20.366Z,12.40
2023-03-22T05:37:25.377Z,12.20
2023-03-22T05:40:33.232Z,12.30
2023-03-22T05:43:38.280Z,12.30
2023-03-22T05:46:43.131Z,12.30
2023-03-22T05:50:17.507Z,12.20
2023-03-22T05:53:22.167Z,11.90
2023-03-22T05:56:31.166Z,12.10
2023-03-22T05:59:43.555Z,11.90
2023-03-22T06:03:00.543Z,12.00
2023-03-22T06:06:06.999Z,12.00
2023-03-22T06:09:18.256Z,11.90
2023-03-22T06:12:29.998Z,11.70
2023-03-22T06:15:44.256Z,11.90
2023-03-22T06:18:55.519Z,11.50
2023-03-22T06:21:59.942Z,11.60
2023-03-22T06:25:06.955Z,11.60
2023-03-22T06:28:17.310Z,11.70
2023-03-22T06:31:30.840Z,11.60
2023-03-22T06:34:41.100Z,11.60
2023-03-22T06:37:47.664Z,11.70
2023-03-22T06:40:51.860Z,11.70
2023-03-22T06:43:56.427Z,11.60
2023-03-22T06:47:18.218Z,11.60
2023-03-22T06:50:44.098Z,11.70
2023-03-22T06:53:56.259Z,11.60
2023-03-22T06:57:00.812Z,11.60
2023-03-22T07:00:05.987Z,11.70
2023-03-22T07:03:11.164Z,11.70
2023-03-22T07:06:34.354Z,11.70
2023-03-22T07:09:40.624Z,11.50
2023-03-22T07:12:45.360Z,11.50
2023-03-22T07:15:57.379Z,11.50
2023-03-22T07:19:17.280Z,11.30
2023-03-22T07:22:22.490Z,11.30
2023-03-22T07:25:29.645Z,11.50
2023-03-22T07:28:47.203Z,11.40
2023-03-22T07:31:52.754Z,11.50
2023-03-22T07:35:04.482Z,11.40
2023-03-22T07:38:09.116Z,11.30
2023-03-22T07:41:13.706Z,11.30
2023-03-22T07:44:30.939Z,11.50
2023-03-22T07:47:53.604Z,11.30
2023-03-22T07:51:16.979Z,11.40
2023-03-22T07:54:32.880Z,11.40
2023-03-22T07:57:39.897Z,11.40
2023-03-22T08:00:44.568Z,11.30
2023-03-22T08:04:08.317Z,11.30
2023-03-22T08:07:25.821Z,11.40
2023-03-22T08:10:31.768Z,11.70
2023-03-22T08:13:36.372Z,12.00
2023-03-22T08:16:44.208Z,11.80
2023-03-22T08:19:50.059Z,12.00
2023-03-22T08:22:59.752Z,11.80
2023-03-22T08:26:04.338Z,11.70
2023-03-22T08:29:10.877Z,11.50
2023-03-22T08:32:16.678Z,11.40
2023-03-22T08:35:21.322Z,11.70
2023-03-22T08:38:28.466Z,11.50
2023-03-22T08:41:34.393Z,11.50
2023-03-22T08:44:39.339Z,11.60
2023-03-22T08:47:44.810Z,11.40
2023-03-22T08:50:49.826Z,11.10
2023-03-22T08:54:03.974Z,11.00
2023-03-22T08:57:27.690Z,11.10
2023-03-22T09:00:52.702Z,10.90
2023-03-22T09:04:17.790Z,10.70
2023-03-22T09:07:22.516Z,10.70
2023-03-22T09:10:39.797Z,10.70
2023-03-22T09:13:46.525Z,10.80
2023-03-22T09:16:51.810Z,10.80
2023-03-22T09:20:11.088Z,10.80
2023-03-22T09:23:18.247Z,10.70
2023-03-22T09:26:23.896Z,10.80
2023-03-22T09:29:30.250Z,10.80
2023-03-22T09:32:35.939Z,10.70
2023-03-22T09:35:43.113Z,10.90
2023-03-22T09:38:50.388Z,10.90
2023-03-22T09:42:03.844Z,10.80
2023-03-22T09:45:16.599Z,10.80
2023-03-22T09:48:27.659Z,10.80
2023-03-22T09:51:44.856Z,10.80
2023-03-22T09:54:52.208Z,10.80
2023-03-22T09:58:07.884Z,10.80
2023-03-22T10:01:37.456Z,10.80
2023-03-22T10:05:00.786Z,10.90
2023-03-22T10:08:35.703Z,11.00
2023-03-22T10:12:05.079Z,11.00
2023-03-22T10:15:17.144Z,11.10
2023-03-22T10:18:43.482Z,11.30
2023-03-22T10:21:50.420Z,11.30
2023-03-22T10:24:55.688Z,11.20
2023-03-22T10:27:59.648Z,11.40
2023-03-22T10:31:05.883Z,11.40
2023-03-22T10:34:28.107Z,11.40
2023-03-22T10:37:35.837Z,11.40
2023-03-22T10:40:40.958Z,11.20
2023-03-22T10:43:48.308Z,11.30
2023-03-22T10:46:55.964Z,11.30
2023-03-22T10:50:06.068Z,11.20
2023-03-22T10:53:23.664Z,11.30
2023-03-22T10:56:27.964Z,11.40
2023-03-22T10:59:51.696Z,11.30
2023-03-22T11:03:00.453Z,11.40
2023-03-22T11:06:12.407Z,11.40
2023-03-22T11:09:22.250Z,11.50
2023-03-22T11:12:27.075Z,11.50
2023-03-22T11:15:34.661Z,11.30
2023-03-22T11:18:41.845Z,11.30
2023-03-22T11:21:46.700Z,11.40
2023-03-22T11:24:52.089Z,11.50
2023-03-22T11:28:05.560Z,11.30
2023-03-22T11:31:11.731Z,11.20
2023-03-22T11:34:21.705Z,11.40
2023-03-22T11:37:26.498Z,11.40
2023-03-22T11:40:34.473Z,11.40
2023-03-22T11:43:43.993Z,11.40
2023-03-22T11:47:03.384Z,11.20
2023-03-22T11:50:20.633Z,11.40
2023-03-22T11:53:27.847Z,11.50
2023-03-22T11:56:32.238Z,11.70
2023-03-22T11:59:48.500Z,11.60
2023-03-22T12:02:57.939Z,11.70
2023-03-22T12:06:08.179Z,11.70
2023-03-22T12:09:38.018Z,11.50
2023-03-22T12:12:50.719Z,11.60
2023-03-22T12:15:59.232Z,11.50
2023-03-22T12:19:29.786Z,11.50
2023-03-22T12:22:51.048Z,11.70
2023-03-22T12:26:15.321Z,11.70
2023-03-22T12:29:21.040Z,11.70
2023-03-22T12:32:33.990Z,11.90
2023-03-22T12:35:44.071Z,11.80
2023-03-22T12:38:56.679Z,11.90
2023-03-22T12:42:17.701Z,11.80
2023-03-22T12:45:26.836Z,11.90
2023-03-22T12:48:38.016Z,11.80
2023-03-22T12:51:43.870Z,11.90
2023-03-22T12:54:50.547Z,11.90
2023-03-22T12:57:55.639Z,11.80
2023-03-22T13:01:31.759Z,11.90
2023-03-22T13:04:37.664Z,11.70
2023-03-22T13:07:48.211Z,11.60
2023-03-22T13:11:01.331Z,11.60
2023-03-22T13:14:05.665Z,11.70
2023-03-22T13:17:11.144Z,11.60
2023-03-22T13:20:21.446Z,11.60
2023-03-22T13:23:27.037Z,11.70
2023-03-22T13:26:51.362Z,11.70
2023-03-22T13:29:57.863Z,11.70
2023-03-22T13:33:15.061Z,11.80
2023-03-22T13:36:25.104Z,11.80
2023-03-22T13:39:34.658Z,11.70
2023-03-22T13:42:41.603Z,11.70
2023-03-22T13:46:07.663Z,11.60
2023-03-22T13:49:40.880Z,11.60
2023-03-22T13:53:02.138Z,11.50
2023-03-22T13:56:07.338Z,11.60
2023-03-22T13:59:12.828Z,11.60
2023-03-22T14:02:28.247Z,11.60
2023-03-22T14:05:36.457Z,11.50
2023-03-22T14:08:43.694Z,11.60
2023-03-22T14:12:06.089Z,11.50
2023-03-22T14:15:16.780Z,11.60
2023-03-22T14:18:28.566Z,11.70
2023-03-22T14:21:43.006Z,11.50
